createdAt,value
2023-02-01T00:01:28.753Z,-4.80
2023-02-01T00:03:57.461Z,-4.80
2023-02-01T00:06:26.175Z,-4.80
2023-02-01T00:08:55.613Z,-4.80
2023-02-01T00:11:25.479Z,-4.80
2023-02-01T00:13:54.172Z,-4.80
2023-02-01T00:16:25.604Z,-4.80
2023-02-01T00:18:59.348Z,-4.80
2023-02-01T00:21:27.657Z,-4.70
2023-02-01T00:23:55.885Z,-4.70
2023-02-01T00:26:32.266Z,-4.70
2023-02-01T00:29:00.598Z,-4.60
2023-02-01T00:31:30.465Z,-4.60
2023-02-01T00:33:58.701Z,-4.50
2023-02-01T00:36:27.120Z,-4.50
2023-02-01T00:38:55.734Z,-4.50
2023-02-01T00:41:24.925Z,-4.40
2023-02-01T00:43:53.301Z,-4.40
2023-02-01T00:46:22.667Z,-4.40
2023-02-01T00:48:52.619Z,-4.40
2023-02-01T00:51:24.487Z,-4.30
2023-02-01T00:53:53.289Z,-4.30
2023-02-01T00:56:22.172Z,-4.20
2023-02-01T00:58:50.913Z,-4.20
2023-02-01T01:01:21.184Z,-4.10
2023-02-01T01:03:52.695Z,-4.10
2023-02-01T01:06:24.378Z,-4.00
2023-02-01T01:08:54.237Z,-4.00
2023-02-01T01:11:25.299Z,-4.00
2023-02-01T01:13:54.826Z,-4.00
2023-02-01T01:16:24.580Z,-4.00
2023-02-01T01:18:55.800Z,-3.90
2023-02-01T01:21:24.167Z,-3.90
2023-02-01T01:23:52.802Z,-3.90
2023-02-01T01:26:23.538Z,-3.80
2023-02-01T01:28:52.104Z,-3.80
2023-02-01T01:31:22.374Z,-3.70
2023-02-01T01:33:51.703Z,-3.60
2023-02-01T01:36:22.860Z,-3.50
2023-02-01T01:38:51.177Z,-3.50
2023-02-01T01:41:22.654Z,-3.50
2023-02-01T01:43:56.718Z,-3.50
2023-02-01T01:46:27.343Z,-3.50
2023-02-01T01:49:00.286Z,-3.50
2023-02-01T01:51:32.698Z,-3.50
2023-02-01T01:54:06.223Z,-3.50
2023-02-01T01:56:37.323Z,-3.40
2023-02-01T01:59:06.785Z,-3.20
2023-02-01T02:01:35.382Z,-3.10
2023-02-01T02:04:04.643Z,-3.20
2023-02-01T02:06:42.799Z,-3.20
2023-02-01T02:09:11.387Z,-3.20
2023-02-01T02:11:39.739Z,-3.20
2023-02-01T02:14:11.477Z,-3.20
2023-02-01T02:17:09.088Z,-3.10
2023-02-01T02:20:22.134Z,-3.10
2023-02-01T02:23:13.773Z,-3.10
2023-02-01T02:26:07.367Z,-3.00
2023-02-01T02:29:18.086Z,-3.00
2023-02-01T02:32:01.392Z,-2.90
2023-02-01T02:34:37.499Z,-2.90
2023-02-01T02:37:14.675Z,-2.90
2023-02-01T02:39:51.846Z,-2.90
2023-02-01T02:42:46.877Z,-2.80
2023-02-01T02:45:40.176Z,-2.80
2023-02-01T02:48:14.770Z,-2.80
2023-02-01T02:51:06.201Z,-2.80
2023-02-01T02:53:57.275Z,-2.70
2023-02-01T02:56:45.195Z,-2.70
2023-02-01T02:59:34.735Z,-2.70
2023-02-01T03:02:21.195Z,-2.70
2023-02-01T03:04:53.929Z,-2.70
2023-02-01T03:07:56.203Z,-2.70
2023-02-01T03:10:32.582Z,-2.60
2023-02-01T03:13:05.727Z,-2.60
2023-02-01T03:15:40.454Z,-2.60
2023-02-01T03:18:15.452Z,-2.50
2023-02-01T03:20:46.750Z,-2.50
2023-02-01T03:23:20.780Z,-2.60
2023-02-01T03:25:52.132Z,-2.60
2023-02-01T03:28:25.026Z,-2.60
2023-02-01T03:30:53.320Z,-2.50
2023-02-01T03:33:25.457Z,-2.40
2023-02-01T03:36:15.770Z,-2.40
2023-02-01T03:38:52.735Z,-2.40
2023-02-01T03:41:26.994Z,-2.30
2023-02-01T03:43:58.496Z,-2.30
2023-02-01T03:46:34.427Z,-2.30
2023-02-01T03:49:07.828Z,-2.30
2023-02-01T03:51:37.938Z,-2.30
2023-02-01T03:54:10.909Z,-2.30
2023-02-01T03:56:42.565Z,-2.20
2023-02-01T03:59:11.140Z,-2.20
2023-02-01T04:01:39.297Z,-2.20
2023-02-01T04:04:07.995Z,-2.30
2023-02-01T04:06:36.183Z,-2.20
2023-02-01T04:09:04.775Z,-2.20
2023-02-01T04:11:34.874Z,-2.20
2023-02-01T04:14:05.453Z,-2.20
2023-02-01T04:16:34.438Z,-2.10
2023-02-01T04:19:03.034Z,-2.00
2023-02-01T04:21:31.861Z,-1.90
2023-02-01T04:24:00.411Z,-2.00
2023-02-01T04:26:28.586Z,-1.90
2023-02-01T04:28:58.225Z,-1.90
2023-02-01T04:31:28.147Z,-1.80
2023-02-01T04:33:58.805Z,-1.70
2023-02-01T04:36:27.473Z,-1.70
2023-02-01T04:38:55.644Z,-1.60
2023-02-01T04:41:24.379Z,-1.60
2023-02-01T04:43:53.588Z,-1.70
2023-02-01T04:46:23.248Z,-1.70
2023-02-01T04:48:51.520Z,-1.70
2023-02-01T04:51:20.166Z,-1.70
2023-02-01T04:53:48.276Z,-1.70
2023-02-01T04:56:16.632Z,-1.60
2023-02-01T04:58:45.272Z,-1.60
2023-02-01T05:01:13.439Z,-1.60
2023-02-01T05:03:43.058Z,-1.60
2023-02-01T05:06:11.451Z,-1.60
2023-02-01T05:08:39.631Z,-1.60
2023-02-01T05:11:08.271Z,-1.60
2023-02-01T05:13:50.703Z,-1.60
2023-02-01T05:16:19.386Z,-1.60
2023-02-01T05:18:49.339Z,-1.50
2023-02-01T05:21:17.577Z,-1.50
2023-02-01T05:24:03.305Z,-1.50
2023-02-01T05:26:32.204Z,-1.50
2023-02-01T05:29:00.434Z,-1.40
2023-02-01T05:31:28.797Z,-1.40
2023-02-01T05:33:58.915Z,-1.40
2023-02-01T05:36:27.148Z,-1.40
2023-02-01T05:38:55.600Z,-1.40
2023-02-01T05:41:24.283Z,-1.40
2023-02-01T05:43:52.478Z,-1.40
2023-02-01T05:46:20.781Z,-1.30
2023-02-01T05:48:49.440Z,-1.30
2023-02-01T05:51:19.119Z,-1.30
2023-02-01T05:53:47.668Z,-1.30
2023-02-01T05:56:15.903Z,-1.30
2023-02-01T05:58:44.257Z,-1.20
2023-02-01T06:01:12.595Z,-1.20
2023-02-01T06:03:41.007Z,-1.20
2023-02-01T06:06:09.729Z,-1.30
2023-02-01T06:08:41.787Z,-1.20
2023-02-01T06:11:13.382Z,-1.20
2023-02-01T06:13:41.707Z,-1.20
2023-02-01T06:16:10.131Z,-1.20
2023-02-01T06:18:38.850Z,-1.10
2023-02-01T06:21:07.260Z,-1.00
2023-02-01T06:23:36.258Z,-1.00
2023-02-01T06:26:08.661Z,-1.10
2023-02-01T06:28:37.457Z,-1.10
2023-02-01T06:31:07.621Z,-1.10
2023-02-01T06:33:36.157Z,-1.20
2023-02-01T06:36:06.604Z,-1.10
2023-02-01T06:38:35.767Z,-1.10
2023-02-01T06:41:05.935Z,-1.20
2023-02-01T06:43:34.956Z,-1.20
2023-02-01T06:46:04.979Z,-1.20
2023-02-01T06:48:33.538Z,-1.20
2023-02-01T06:51:02.629Z,-1.20
2023-02-01T06:53:31.115Z,-1.10
2023-02-01T06:56:01.588Z,-1.10
2023-02-01T06:58:33.299Z,-1.10
2023-02-01T07:01:07.105Z,-1.10
2023-02-01T07:03:35.986Z,-1.00
2023-02-01T07:06:04.662Z,-1.00
2023-02-01T07:08:34.513Z,-1.00
2023-02-01T07:11:04.764Z,-1.00
2023-02-01T07:13:34.787Z,-1.00
2023-02-01T07:16:04.459Z,-0.90
2023-02-01T07:18:33.649Z,-0.90
2023-02-01T07:21:02.410Z,-0.90
2023-02-01T07:23:30.694Z,-1.00
2023-02-01T07:26:00.201Z,-0.90
2023-02-01T07:28:30.574Z,-0.90
2023-02-01T07:31:06.603Z,-0.90
2023-02-01T07:33:35.239Z,-0.90
2023-02-01T07:36:05.082Z,-0.90
2023-02-01T07:38:33.929Z,-0.90
2023-02-01T07:41:03.250Z,-0.90
2023-02-01T07:43:31.537Z,-0.90
2023-02-01T07:46:00.497Z,-0.90
2023-02-01T07:48:30.357Z,-0.80
2023-02-01T07:51:03.274Z,-0.70
2023-02-01T07:53:32.458Z,-0.70
2023-02-01T07:56:00.856Z,-0.70
2023-02-01T07:58:29.286Z,-0.70
2023-02-01T08:01:16.381Z,-0.70
2023-02-01T08:03:46.018Z,-0.70
2023-02-01T08:06:14.184Z,-0.60
2023-02-01T08:08:43.891Z,-0.60
2023-02-01T08:11:12.174Z,-0.60
2023-02-01T08:13:40.393Z,-0.60
2023-02-01T08:16:10.725Z,-0.60
2023-02-01T08:18:40.011Z,-0.60
2023-02-01T08:21:12.772Z,-0.50
2023-02-01T08:23:42.589Z,-0.50
2023-02-01T08:26:12.280Z,-0.40
2023-02-01T08:28:41.691Z,-0.40
2023-02-01T08:31:11.638Z,-0.40
2023-02-01T08:33:40.072Z,-0.30
2023-02-01T08:36:11.810Z,-0.30
2023-02-01T08:38:42.589Z,-0.30
2023-02-01T08:41:12.725Z,-0.30
2023-02-01T08:43:41.487Z,-0.30
2023-02-01T08:46:10.801Z,-0.30
2023-02-01T08:48:39.850Z,-0.20
2023-02-01T08:51:11.317Z,-0.20
2023-02-01T08:53:42.309Z,-0.20
2023-02-01T08:56:11.414Z,-0.20
2023-02-01T08:58:40.274Z,-0.20
2023-02-01T09:01:10.521Z,-0.20
2023-02-01T09:03:38.920Z,-0.10
2023-02-01T09:06:10.888Z,0.00
2023-02-01T09:08:40.873Z,0.10
2023-02-01T09:11:12.997Z,0.10
2023-02-01T09:13:41.262Z,0.20
2023-02-01T09:16:09.621Z,0.20
2023-02-01T09:18:45.957Z,0.30
2023-02-01T09:21:25.716Z,0.30
2023-02-01T09:23:54.240Z,0.40
2023-02-01T09:26:31.448Z,0.40
2023-02-01T09:29:00.773Z,0.40
2023-02-01T09:31:29.142Z,0.40
2023-02-01T09:33:57.424Z,0.50
2023-02-01T09:36:29.430Z,0.50
2023-02-01T09:38:59.837Z,0.40
2023-02-01T09:41:49.128Z,0.40
2023-02-01T09:44:43.921Z,0.40
2023-02-01T09:47:15.395Z,0.40
2023-02-01T09:49:53.807Z,0.50
2023-02-01T09:52:29.340Z,0.50
2023-02-01T09:55:03.812Z,0.50
2023-02-01T09:57:43.663Z,0.60
2023-02-01T10:00:19.993Z,0.70
2023-02-01T10:02:48.675Z,0.70
2023-02-01T10:05:25.113Z,0.90
2023-02-01T10:08:04.187Z,0.90
2023-02-01T10:10:39.077Z,1.00
2023-02-01T10:13:22.804Z,1.10
2023-02-01T10:16:01.236Z,1.10
2023-02-01T10:18:51.541Z,1.30
2023-02-01T10:21:32.699Z,1.40
2023-02-01T10:24:25.592Z,1.50
2023-02-01T10:27:01.838Z,1.50
2023-02-01T10:29:38.385Z,1.60
2023-02-01T10:32:15.142Z,1.60
2023-02-01T10:34:45.196Z,1.50
2023-02-01T10:37:22.607Z,1.60
2023-02-01T10:39:55.157Z,1.60
2023-02-01T10:42:27.291Z,1.80
2023-02-01T10:44:58.352Z,1.90
2023-02-01T10:47:27.192Z,1.90
2023-02-01T10:50:04.298Z,2.00
2023-02-01T10:52:40.756Z,2.00
2023-02-01T10:55:30.081Z,1.90
2023-02-01T10:57:59.771Z,1.70
2023-02-01T11:00:28.921Z,1.70
2023-02-01T11:02:57.659Z,1.60
2023-02-01T11:05:27.488Z,1.50
2023-02-01T11:07:57.793Z,1.40
2023-02-01T11:10:42.623Z,1.30
2023-02-01T11:13:18.177Z,1.20
2023-02-01T11:15:47.781Z,1.20
2023-02-01T11:18:21.094Z,1.20
2023-02-01T11:20:52.949Z,1.30
2023-02-01T11:23:23.809Z,1.20
2023-02-01T11:25:56.095Z,1.10
2023-02-01T11:28:26.804Z,1.00
2023-02-01T11:30:58.449Z,0.90
2023-02-01T11:33:30.850Z,0.90
2023-02-01T11:36:00.185Z,1.00
2023-02-01T11:38:31.381Z,0.90
2023-02-01T11:41:14.604Z,0.90
2023-02-01T11:43:54.253Z,0.90
2023-02-01T11:46:27.338Z,0.90
2023-02-01T11:48:57.622Z,0.90
2023-02-01T11:51:39.518Z,0.80
2023-02-01T11:54:39.740Z,0.80
2023-02-01T11:57:21.853Z,0.80
2023-02-01T12:00:04.359Z,0.80
2023-02-01T12:02:57.522Z,0.80
2023-02-01T12:05:38.996Z,0.80
2023-02-01T12:08:28.752Z,0.80
2023-02-01T12:11:08.194Z,0.80
2023-02-01T12:13:54.327Z,0.90
2023-02-01T12:16:32.054Z,0.90
2023-02-01T12:19:26.331Z,0.90
2023-02-01T12:22:16.932Z,0.80
2023-02-01T12:25:07.974Z,0.90
2023-02-01T12:27:53.414Z,0.90
2023-02-01T12:31:02.014Z,0.90
2023-02-01T12:33:41.748Z,1.00
2023-02-01T12:36:19.932Z,1.10
2023-02-01T12:38:59.662Z,1.20
2023-02-01T12:41:54.887Z,1.30
2023-02-01T12:44:31.063Z,1.30
2023-02-01T12:47:05.830Z,1.50
2023-02-01T12:49:44.059Z,1.60
2023-02-01T12:52:20.042Z,1.60
2023-02-01T12:54:52.882Z,1.50
2023-02-01T12:57:27.638Z,1.70
2023-02-01T13:00:03.647Z,1.80
2023-02-01T13:02:43.365Z,1.90
2023-02-01T13:05:18.992Z,1.80
2023-02-01T13:07:54.442Z,1.80
2023-02-01T13:10:31.268Z,1.90
2023-02-01T13:13:06.209Z,1.60
2023-02-01T13:15:40.618Z,1.40
2023-02-01T13:18:17.291Z,1.30
2023-02-01T13:20:55.410Z,1.30
2023-02-01T13:23:29.891Z,1.20
2023-02-01T13:25:58.409Z,1.10
2023-02-01T13:28:30.184Z,1.00
2023-02-01T13:31:31.076Z,0.90
2023-02-01T13:34:24.527Z,1.00
2023-02-01T13:37:11.451Z,1.00
2023-02-01T13:39:50.331Z,1.00
2023-02-01T13:42:24.157Z,0.90
2023-02-01T13:44:54.917Z,0.90
2023-02-01T13:47:28.676Z,1.00
2023-02-01T13:50:00.513Z,1.00
2023-02-01T13:52:33.913Z,1.00
2023-02-01T13:55:18.220Z,1.00
2023-02-01T13:57:47.219Z,1.00
2023-02-01T14:00:31.555Z,1.00
2023-02-01T14:03:17.782Z,1.00
2023-02-01T14:06:36.681Z,1.00
2023-02-01T14:09:19.318Z,1.00
2023-02-01T14:11:51.972Z,0.90
2023-02-01T14:14:44.172Z,0.90
2023-02-01T14:17:37.162Z,0.90
2023-02-01T14:20:46.993Z,0.90
2023-02-01T14:23:25.935Z,0.80
2023-02-01T14:26:25.878Z,0.70
2023-02-01T14:29:03.570Z,0.70
2023-02-01T14:31:52.684Z,0.70
2023-02-01T14:34:30.011Z,0.70
2023-02-01T14:37:01.971Z,0.60
2023-02-01T14:39:55.528Z,0.60
2023-02-01T14:42:28.833Z,0.60
2023-02-01T14:45:18.192Z,0.50
2023-02-01T14:47:48.043Z,0.50
2023-02-01T14:50:29.979Z,0.50
2023-02-01T14:53:12.802Z,0.40
2023-02-01T14:55:44.087Z,0.40
2023-02-01T14:58:20.854Z,0.40
2023-02-01T15:00:54.879Z,0.40
2023-02-01T15:03:45.989Z,0.40
2023-02-01T15:06:34.253Z,0.40
2023-02-01T15:09:06.503Z,0.40
2023-02-01T15:11:56.979Z,0.40
2023-02-01T15:14:26.043Z,0.30
2023-02-01T15:16:55.710Z,0.30
2023-02-01T15:19:24.889Z,0.30
2023-02-01T15:21:55.160Z,0.30
2023-02-01T15:24:25.422Z,0.20
2023-02-01T15:26:56.609Z,0.20
2023-02-01T15:29:28.878Z,0.20
2023-02-01T15:31:57.177Z,0.20
2023-02-01T15:34:25.818Z,0.20
2023-02-01T15:37:03.070Z,0.20
2023-02-01T15:39:33.492Z,0.20
2023-02-01T15:42:11.528Z,0.20
2023-02-01T15:44:43.661Z,0.20
2023-02-01T15:47:17.904Z,0.20
2023-02-01T15:49:49.309Z,0.10
2023-02-01T15:52:28.904Z,0.10
2023-02-01T15:55:00.000Z,0.10
2023-02-01T15:57:33.631Z,0.00
2023-02-01T16:00:04.539Z,0.00
2023-02-01T16:02:38.949Z,0.00
2023-02-01T16:05:27.468Z,0.00
2023-02-01T16:08:05.038Z,0.00
2023-02-01T16:10:34.446Z,0.00
2023-02-01T16:13:03.964Z,0.00
2023-02-01T16:15:33.189Z,-0.10
2023-02-01T16:18:03.200Z,-0.10
2023-02-01T16:20:31.778Z,-0.10
2023-02-01T16:23:00.000Z,-0.10
2023-02-01T16:25:28.596Z,-0.10
2023-02-01T16:27:56.896Z,-0.10
2023-02-01T16:30:26.815Z,-0.10
2023-02-01T16:32:56.316Z,-0.10
2023-02-01T16:35:27.126Z,-0.10
2023-02-01T16:37:56.143Z,-0.10
2023-02-01T16:40:24.672Z,-0.10
2023-02-01T16:42:56.922Z,-0.10
2023-02-01T16:45:26.999Z,-0.10
2023-02-01T16:47:57.225Z,-0.10
2023-02-01T16:50:28.644Z,-0.10
2023-02-01T16:52:56.759Z,-0.10
2023-02-01T16:55:25.219Z,-0.20
2023-02-01T16:57:54.235Z,-0.20
2023-02-01T17:00:24.865Z,-0.20
2023-02-01T17:02:55.729Z,-0.20
2023-02-01T17:05:24.395Z,-0.20
2023-02-01T17:07:53.738Z,-0.30
2023-02-01T17:10:33.253Z,-0.30
2023-02-01T17:13:02.992Z,-0.30
2023-02-01T17:15:37.432Z,-0.30
2023-02-01T17:18:09.859Z,-0.30
2023-02-01T17:20:38.679Z,-0.40
2023-02-01T17:23:07.623Z,-0.40
2023-02-01T17:25:36.163Z,-0.40
2023-02-01T17:28:05.077Z,-0.40
2023-02-01T17:30:34.052Z,-0.40
2023-02-01T17:33:13.349Z,-0.40
2023-02-01T17:35:50.785Z,-0.40
2023-02-01T17:38:20.532Z,-0.40
2023-02-01T17:40:48.758Z,-0.40
2023-02-01T17:43:20.369Z,-0.40
2023-02-01T17:45:52.765Z,-0.50
2023-02-01T17:48:21.788Z,-0.40
2023-02-01T17:50:58.602Z,-0.50
2023-02-01T17:53:27.882Z,-0.40
2023-02-01T17:55:58.335Z,-0.40
2023-02-01T17:58:30.757Z,-0.40
2023-02-01T18:00:59.419Z,-0.40
2023-02-01T18:03:30.129Z,-0.50
2023-02-01T18:06:01.656Z,-0.40
2023-02-01T18:08:33.405Z,-0.40
2023-02-01T18:11:03.439Z,-0.40
2023-02-01T18:13:33.158Z,-0.50
2023-02-01T18:16:02.127Z,-0.40
2023-02-01T18:18:33.485Z,-0.40
2023-02-01T18:21:03.075Z,-0.40
2023-02-01T18:23:31.841Z,-0.50
2023-02-01T18:26:00.256Z,-0.50
2023-02-01T18:28:28.558Z,-0.50
2023-02-01T18:30:57.015Z,-0.50
2023-02-01T18:33:25.185Z,-0.50
2023-02-01T18:35:53.378Z,-0.60
2023-02-01T18:38:23.238Z,-0.60
2023-02-01T18:40:53.724Z,-0.60
2023-02-01T18:43:22.445Z,-0.70
2023-02-01T18:45:51.087Z,-0.70
2023-02-01T18:48:22.424Z,-0.70
2023-02-01T18:50:57.180Z,-0.70
2023-02-01T18:53:28.208Z,-0.70
2023-02-01T18:55:57.227Z,-0.70
2023-02-01T18:58:26.511Z,-0.70
2023-02-01T19:00:56.463Z,-0.80
2023-02-01T19:03:27.015Z,-0.80
2023-02-01T19:05:57.055Z,-0.80
2023-02-01T19:08:26.728Z,-0.80
2023-02-01T19:10:55.612Z,-0.80
2023-02-01T19:13:27.662Z,-0.90
2023-02-01T19:15:57.056Z,-0.90
2023-02-01T19:18:25.769Z,-0.90
2023-02-01T19:20:55.473Z,-0.90
2023-02-01T19:23:23.771Z,-0.80
2023-02-01T19:25:53.377Z,-0.80
2023-02-01T19:28:22.024Z,-0.80
2023-02-01T19:30:50.480Z,-0.80
2023-02-01T19:33:19.289Z,-0.80
2023-02-01T19:35:47.447Z,-0.80
2023-02-01T19:38:16.478Z,-0.80
2023-02-01T19:40:44.833Z,-0.80
2023-02-01T19:43:14.830Z,-0.80
2023-02-01T19:45:44.273Z,-0.80
2023-02-01T19:48:13.417Z,-0.80
2023-02-01T19:50:42.488Z,-0.80
2023-02-01T19:53:11.014Z,-0.80
2023-02-01T19:55:39.238Z,-0.80
2023-02-01T19:58:07.703Z,-0.80
2023-02-01T20:00:36.525Z,-0.80
2023-02-01T20:03:04.953Z,-0.80
2023-02-01T20:05:33.324Z,-0.90
2023-02-01T20:08:01.737Z,-0.90
2023-02-01T20:10:30.051Z,-0.80
2023-02-01T20:12:58.358Z,-0.80
2023-02-01T20:15:28.417Z,-0.80
2023-02-01T20:17:58.144Z,-0.80
2023-02-01T20:20:26.656Z,-0.80
2023-02-01T20:22:54.968Z,-0.80
2023-02-01T20:25:23.642Z,-0.80
2023-02-01T20:27:53.177Z,-0.80
2023-02-01T20:30:21.580Z,-0.80
2023-02-01T20:32:50.615Z,-0.80
2023-02-01T20:35:20.925Z,-0.80
2023-02-01T20:37:49.983Z,-0.80
2023-02-01T20:40:18.366Z,-0.80
2023-02-01T20:42:46.993Z,-0.90
2023-02-01T20:45:15.554Z,-0.90
2023-02-01T20:47:43.683Z,-0.80
2023-02-01T20:50:13.351Z,-0.80
2023-02-01T20:52:43.582Z,-0.80
2023-02-01T20:55:11.900Z,-0.80
2023-02-01T20:57:40.477Z,-0.80
2023-02-01T21:00:11.199Z,-0.80
2023-02-01T21:02:39.670Z,-0.80
2023-02-01T21:05:08.970Z,-0.80
2023-02-01T21:07:37.737Z,-0.80
2023-02-01T21:10:07.879Z,-0.80
2023-02-01T21:12:36.959Z,-0.80
2023-02-01T21:15:06.460Z,-0.80
2023-02-01T21:17:34.897Z,-0.80
2023-02-01T21:20:03.341Z,-0.90
2023-02-01T21:22:31.951Z,-0.90
2023-02-01T21:25:01.998Z,-0.90
2023-02-01T21:27:32.249Z,-0.90
2023-02-01T21:30:00.436Z,-0.80
2023-02-01T21:32:28.526Z,-0.80
2023-02-01T21:34:58.538Z,-0.80
2023-02-01T21:37:27.143Z,-0.80
2023-02-01T21:39:56.459Z,-0.80
2023-02-01T21:42:27.109Z,-0.80
2023-02-01T21:44:58.326Z,-0.70
2023-02-01T21:47:26.871Z,-0.70
2023-02-01T21:49:55.969Z,-0.70
2023-02-01T21:52:25.281Z,-0.70
2023-02-01T21:54:59.463Z,-0.70
2023-02-01T21:57:28.417Z,-0.70
2023-02-01T21:59:58.845Z,-0.70
2023-02-01T22:02:28.093Z,-0.70
2023-02-01T22:04:57.741Z,-0.70
2023-02-01T22:07:25.967Z,-0.70
2023-02-01T22:09:54.189Z,-0.60
2023-02-01T22:12:22.983Z,-0.70
2023-02-01T22:14:51.189Z,-0.60
2023-02-01T22:17:20.924Z,-0.60
2023-02-01T22:19:49.095Z,-0.60
2023-02-01T22:22:17.269Z,-0.60
2023-02-01T22:24:45.936Z,-0.60
2023-02-01T22:27:14.826Z,-0.60
2023-02-01T22:29:44.070Z,-0.60
2023-02-01T22:32:14.388Z,-0.60
2023-02-01T22:34:44.447Z,-0.60
2023-02-01T22:37:12.686Z,-0.60
2023-02-01T22:39:41.518Z,-0.60
2023-02-01T22:42:09.790Z,-0.60
2023-02-01T22:44:37.937Z,-0.60
2023-02-01T22:47:07.075Z,-0.60
2023-02-01T22:49:35.734Z,-0.60
2023-02-01T22:52:05.451Z,-0.60
2023-02-01T22:54:34.033Z,-0.60
2023-02-01T22:57:02.754Z,-0.60
2023-02-01T22:59:30.921Z,-0.60
2023-02-01T23:01:59.638Z,-0.60
2023-02-01T23:04:28.179Z,-0.60
2023-02-01T23:06:56.420Z,-0.60
2023-02-01T23:09:27.753Z,-0.60
2023-02-01T23:11:56.228Z,-0.60
2023-02-01T23:14:24.554Z,-0.60
2023-02-01T23:16:52.882Z,-0.60
2023-02-01T23:19:21.858Z,-0.60
2023-02-01T23:21:50.454Z,-0.60
2023-02-01T23:24:19.225Z,-0.60
2023-02-01T23:26:49.338Z,-0.60
2023-02-01T23:29:19.543Z,-0.60
2023-02-01T23:31:48.016Z,-0.60
2023-02-01T23:34:16.643Z,-0.60
2023-02-01T23:36:44.996Z,-0.60
2023-02-01T23:39:13.778Z,-0.60
2023-02-01T23:41:42.530Z,-0.60
2023-02-01T23:44:12.688Z,-0.60
2023-02-01T23:46:44.706Z,-0.60
2023-02-01T23:49:13.889Z,-0.60
2023-02-01T23:51:42.905Z,-0.60
2023-02-01T23:54:12.804Z,-0.60
2023-02-01T23:56:42.887Z,-0.60
2023-02-01T23:59:16.179Z,-0.60
